Time;durP1;ratioP1;P1;durP2;ratioP2;P2;SDS_P1;SDS_P2;PMS_P1;PMS_P2;Temp;Humidity;BMP_temperature;BMP_pressure;BME280_temperature;BME280_humidity;BME280_pressure;Samples;Min_cycle;Max_cycle;Signal;HPM_P1;HPM_P2
2022/02/26 00:00:30;;;;;;;7.72;3.20;;;;;;;0.28;90.42;96523.44;5101817;27;20100;-75
2022/02/26 00:03:07;;;;;;;9.77;3.10;;;;;;;0.23;91.04;96530.94;5102084;28;20044;-75
2022/02/26 00:05:33;;;;;;;16.13;3.40;;;;;;;0.38;90.65;96526.56;5089681;28;20046;-75
2022/02/26 00:07:59;;;;;;;19.08;2.67;;;;;;;0.31;90.14;96530.84;5089650;28;20044;-75
2022/02/26 00:10:25;;;;;;;15.43;3.03;;;;;;;0.41;90.15;96531.38;5089970;28;20093;-74
2022/02/26 00:12:55;;;;;;;14.50;3.15;;;;;;;0.41;90.69;96533.97;5093176;28;20043;-74
2022/02/26 00:15:22;;;;;;;7.65;3.08;;;;;;;0.46;88.85;96534.25;5089091;28;20042;-74
2022/02/26 00:17:48;;;;;;;10.00;2.78;;;;;;;0.32;89.61;96535.06;5089493;28;20043;-74
2022/02/26 00:20:14;;;;;;;11.27;2.65;;;;;;;0.34;89.93;96543.44;5096922;28;20520;-74
2022/02/26 00:22:40;;;;;;;12.45;3.03;;;;;;;0.32;89.48;96545.41;5106526;28;20045;-75
2022/02/26 00:25:06;;;;;;;16.05;2.88;;;;;;;0.52;88.90;96551.63;5091296;28;20548;-74
2022/02/26 00:27:32;;;;;;;9.45;2.70;;;;;;;0.49;89.20;96553.81;5106945;28;20047;-75
2022/02/26 00:29:57;;;;;;;9.18;2.80;;;;;;;0.36;89.07;96551.84;5108955;28;20420;-75
2022/02/26 00:32:23;;;;;;;11.27;2.65;;;;;;;0.46;88.34;96552.38;5095058;28;20464;-75
2022/02/26 00:34:49;;;;;;;6.22;2.47;;;;;;;0.40;89.09;96557.44;5093519;28;20047;-74
2022/02/26 00:37:14;;;;;;;7.18;2.67;;;;;;;0.39;89.70;96554.06;5089439;28;20036;-75
2022/02/26 00:39:41;;;;;;;10.98;2.80;;;;;;;0.27;89.19;96552.91;5089535;28;20067;-75
2022/02/26 00:42:06;;;;;;;7.97;2.80;;;;;;;0.26;89.19;96561.63;5088225;28;20047;-75
2022/02/26 00:44:32;;;;;;;10.88;2.80;;;;;;;0.31;89.03;96569.69;5089841;28;20032;-75
2022/02/26 00:46:58;;;;;;;10.40;2.92;;;;;;;0.30;89.32;96562.88;5101627;28;20071;-75
2022/02/26 00:52:08;;;;;;;13.88;2.95;;;;;;;0.23;89.12;96568.00;5088946;28;20161;-75
2022/02/26 00:54:34;;;;;;;12.40;3.08;;;;;;;0.15;89.73;96574.03;5100063;28;20044;-75
2022/02/26 00:56:59;;;;;;;10.75;2.70;;;;;;;0.24;90.80;96573.97;5103173;28;20493;-75
2022/02/26 00:59:25;;;;;;;15.63;3.50;;;;;;;0.34;88.93;96569.31;5106178;28;20046;-75
2022/02/26 01:01:50;;;;;;;9.15;2.83;;;;;;;0.15;90.52;96576.63;5099980;28;20061;-75
2022/02/26 01:04:16;;;;;;;7.45;2.92;;;;;;;0.20;89.41;96573.50;5095577;28;20040;-75
2022/02/26 01:06:41;;;;;;;12.23;3.03;;;;;;;0.09;90.21;96581.72;5092132;28;20051;-75
2022/02/26 01:09:07;;;;;;;9.60;3.05;;;;;;;0.08;90.21;96580.91;5107302;28;20069;-75
2022/02/26 01:11:33;;;;;;;8.15;2.88;;;;;;;0.08;91.13;96580.91;5098055;28;20032;-74
2022/02/26 01:13:58;;;;;;;12.90;3.60;;;;;;;0.17;90.29;96585.03;5099762;28;20116;-75
2022/02/26 01:16:24;;;;;;;10.43;3.10;;;;;;;0.14;89.84;96594.94;5098721;28;20040;-74
2022/02/26 01:18:51;;;;;;;11.18;3.28;;;;;;;0.12;90.36;96592.53;5089956;28;20044;-75
2022/02/26 01:21:18;;;;;;;8.90;2.83;;;;;;;0.09;90.91;96603.22;5089162;28;20603;-75
2022/02/26 01:23:43;;;;;;;9.85;3.45;;;;;;;0.17;90.97;96604.94;5101583;28;20049;-74
2022/02/26 01:26:09;;;;;;;8.98;3.17;;;;;;;0.25;90.19;96606.66;5104451;28;20157;-75
2022/02/26 01:28:35;;;;;;;11.80;3.65;;;;;;;0.16;90.69;96608.53;5106756;28;20074;-75
2022/02/26 01:31:00;;;;;;;9.90;4.20;;;;;;;0.30;90.67;96604.31;5104968;28;20523;-75
2022/02/26 01:33:26;;;;;;;13.05;3.70;;;;;;;0.27;89.95;96609.84;5104295;28;20036;-75
2022/02/26 01:35:52;;;;;;;11.65;4.18;;;;;;;0.19;90.79;96612.50;5094269;28;20403;-75
2022/02/26 01:38:17;;;;;;;11.27;3.50;;;;;;;0.25;90.34;96619.59;5088949;28;20036;-75
2022/02/26 01:40:43;;;;;;;14.23;4.38;;;;;;;0.23;90.14;96618.94;5088728;28;20040;-75
2022/02/26 01:43:09;;;;;;;10.10;3.40;;;;;;;0.19;90.23;96608.16;5091069;28;20044;-75
2022/02/26 01:45:34;;;;;;;10.45;3.53;;;;;;;0.25;89.52;96612.63;5088116;28;20040;-75
2022/02/26 01:48:00;;;;;;;14.45;3.67;;;;;;;0.22;90.23;96614.78;5088592;28;20402;-75
2022/02/26 01:50:25;;;;;;;9.88;3.45;;;;;;;0.31;90.03;96616.28;5089095;28;20073;-75
2022/02/26 01:52:51;;;;;;;12.82;3.38;;;;;;;0.14;90.92;96611.28;5104844;28;20105;-75
2022/02/26 01:55:17;;;;;;;10.15;3.45;;;;;;;0.14;90.33;96611.28;5092983;28;20040;-75
2022/02/26 01:57:42;;;;;;;8.00;3.53;;;;;;;0.12;90.79;96607.25;5096836;28;20039;-75
2022/02/26 02:00:10;;;;;;;10.50;3.47;;;;;;;0.01;91.01;96611.06;5107731;28;20067;-75
2022/02/26 02:02:36;;;;;;;9.43;3.22;;;;;;;0.14;90.60;96615.63;5102361;28;20089;-75
2022/02/26 02:05:03;;;;;;;9.02;3.80;;;;;;;-0.02;90.86;96606.25;5094853;28;20471;-75
2022/02/26 02:07:29;;;;;;;12.80;3.72;;;;;;;-0.02;91.34;96611.41;5111716;28;20043;-75
2022/02/26 02:09:55;;;;;;;9.23;2.97;;;;;;;-0.05;92.08;96611.78;5109323;28;20089;-75
2022/02/26 02:12:21;;;;;;;8.50;3.28;;;;;;;-0.08;91.94;96612.13;5097512;28;20040;-74
2022/02/26 02:14:47;;;;;;;10.65;3.40;;;;;;;-0.11;91.61;96607.28;5105586;28;20074;-75
2022/02/26 02:17:14;;;;;;;8.35;3.35;;;;;;;-0.24;91.70;96619.03;5092276;28;20127;-75
2022/02/26 02:19:41;;;;;;;8.63;3.20;;;;;;;-0.27;91.72;96611.63;5106777;28;20050;-75
2022/02/26 02:22:07;;;;;;;10.70;3.22;;;;;;;-0.33;92.30;96622.66;5111706;28;20088;-75
2022/02/26 02:24:34;;;;;;;10.73;3.60;;;;;;;-0.32;92.39;96619.06;5098002;28;20104;-75
2022/02/26 02:27:00;;;;;;;13.27;3.30;;;;;;;-0.31;92.54;96623.28;5104942;28;20044;-75
2022/02/26 02:29:27;;;;;;;11.30;3.42;;;;;;;-0.30;92.31;96619.72;5095071;28;20039;-75
2022/02/26 02:31:53;;;;;;;14.77;4.10;;;;;;;-0.39;92.44;96620.75;5092875;28;20040;-74
2022/02/26 02:34:18;;;;;;;11.13;3.60;;;;;;;-0.33;92.63;96624.44;5109927;28;20039;-75
2022/02/26 02:36:46;;;;;;;8.60;3.35;;;;;;;-0.20;91.72;96625.47;5097722;28;20047;-74
2022/02/26 02:39:13;;;;;;;8.25;3.40;;;;;;;-0.28;92.14;96628.09;5107769;28;20545;-74
2022/02/26 02:41:39;;;;;;;8.50;2.90;;;;;;;-0.32;92.78;96632.00;5104166;28;20180;-75
2022/02/26 02:44:06;;;;;;;8.70;2.70;;;;;;;-0.25;91.18;96632.94;5106864;27;20044;-75
2022/02/26 02:46:32;;;;;;;8.13;3.00;;;;;;;-0.15;90.37;96637.09;5105176;28;20082;-75
2022/02/26 02:48:57;;;;;;;9.13;2.30;;;;;;;-0.08;89.47;96627.66;5110242;28;20047;-75
2022/02/26 02:51:23;;;;;;;5.22;2.63;;;;;;;-0.07;88.17;96637.81;5095069;28;20129;-75
2022/02/26 02:53:49;;;;;;;8.93;2.97;;;;;;;-0.04;87.85;96639.25;5091079;28;20070;-74
2022/02/26 02:56:14;;;;;;;6.90;2.60;;;;;;;0.03;88.08;96637.59;5093951;28;20089;-75
2022/02/26 02:58:40;;;;;;;11.88;2.92;;;;;;;0.03;87.10;96639.34;5102633;28;20055;-75
2022/02/26 03:01:06;;;;;;;7.68;2.70;;;;;;;-0.03;87.86;96640.84;5100313;28;20224;-75
2022/02/26 03:03:31;;;;;;;7.97;2.58;;;;;;;0.07;87.30;96645.78;5096204;28;20070;-75
2022/02/26 03:05:57;;;;;;;9.13;2.85;;;;;;;0.10;86.67;96651.44;5090862;28;20437;-75
2022/02/26 03:08:24;;;;;;;8.15;2.80;;;;;;;0.05;87.41;96648.56;5099860;28;20097;-75
2022/02/26 03:10:54;;;;;;;13.25;2.65;;;;;;;0.13;87.26;96653.66;5102986;28;20103;-76
2022/02/26 03:13:21;;;;;;;6.80;2.42;;;;;;;0.11;86.72;96663.38;5099579;28;20759;-74
2022/02/26 03:15:49;;;;;;;7.00;2.40;;;;;;;0.14;86.11;96657.88;5104171;28;20042;-74
2022/02/26 03:18:16;;;;;;;4.68;2.28;;;;;;;0.25;86.47;96663.63;5109612;28;20494;-74
2022/02/26 03:20:42;;;;;;;7.13;2.58;;;;;;;0.22;86.36;96658.78;5105855;28;20120;-74
2022/02/26 03:23:07;;;;;;;7.95;2.60;;;;;;;0.15;86.24;96664.66;5095874;28;20044;-74
2022/02/26 03:25:33;;;;;;;8.82;2.78;;;;;;;0.13;85.69;96666.63;5098620;28;20040;-75
2022/02/26 03:27:58;;;;;;;7.38;2.50;;;;;;;0.11;86.44;96671.16;5108925;28;20047;-74
2022/02/26 03:30:24;;;;;;;4.05;2.03;;;;;;;0.16;86.95;96670.66;5099628;28;20040;-75
2022/02/26 03:32:50;;;;;;;6.78;2.55;;;;;;;0.25;86.01;96673.97;5090248;28;20619;-75
2022/02/26 03:35:15;;;;;;;6.15;2.40;;;;;;;0.12;86.44;96670.19;5091618;28;20041;-74
2022/02/26 03:37:41;;;;;;;6.00;2.53;;;;;;;0.14;87.18;96677.75;5107429;28;20040;-75
2022/02/26 03:40:09;;;;;;;11.23;2.90;;;;;;;0.17;86.59;96686.00;5098589;28;20048;-75
2022/02/26 03:42:35;;;;;;;5.45;2.40;;;;;;;0.15;86.67;96680.19;5101723;28;20039;-75
2022/02/26 03:45:02;;;;;;;8.00;2.75;;;;;;;0.14;86.68;96678.59;5092053;28;20115;-75
2022/02/26 03:47:28;;;;;;;6.00;2.20;;;;;;;0.29;85.82;96680.41;5108722;28;20053;-75
2022/02/26 03:49:53;;;;;;;8.05;2.67;;;;;;;0.24;86.30;96683.50;5102085;28;20036;-75
2022/02/26 03:52:20;;;;;;;6.40;2.80;;;;;;;0.25;86.61;96686.91;5098513;28;20047;-75
2022/02/26 03:54:46;;;;;;;7.28;2.67;;;;;;;0.26;86.65;96685.91;5103044;28;20039;-75
2022/02/26 03:57:12;;;;;;;6.97;3.50;;;;;;;0.20;87.21;96686.63;5104841;28;20401;-75
2022/02/26 03:59:38;;;;;;;5.60;2.90;;;;;;;0.22;88.10;96689.84;5102992;28;20085;-74
2022/02/26 04:02:03;;;;;;;8.90;2.83;;;;;;;0.24;86.98;96695.66;5099334;28;20053;-75
2022/02/26 04:04:29;;;;;;;8.68;2.97;;;;;;;0.25;87.19;96702.44;5107938;28;20043;-74
2022/02/26 04:06:55;;;;;;;7.65;2.97;;;;;;;0.17;87.67;96704.13;5088310;28;20047;-75
2022/02/26 04:09:22;;;;;;;9.32;3.22;;;;;;;0.11;88.43;96704.00;5089882;28;20044;-74
2022/02/26 04:11:48;;;;;;;7.88;3.03;;;;;;;0.10;88.71;96708.38;5097870;28;20031;-75
2022/02/26 04:14:14;;;;;;;10.18;3.40;;;;;;;0.07;88.78;96708.75;5099453;28;20066;-75
2022/02/26 04:16:40;;;;;;;8.32;3.13;;;;;;;0.12;88.32;96716.78;5100623;28;20067;-75
2022/02/26 04:19:06;;;;;;;6.03;2.70;;;;;;;0.03;89.21;96717.81;5089804;28;20040;-75
2022/02/26 04:21:32;;;;;;;10.02;3.25;;;;;;;0.14;88.95;96716.59;5097169;28;20066;-75
2022/02/26 04:23:58;;;;;;;11.27;3.45;;;;;;;0.16;88.56;96718.03;5108529;28;20046;-75
2022/02/26 04:26:25;;;;;;;7.95;2.90;;;;;;;0.07;89.06;96713.09;5091376;28;20044;-75
2022/02/26 04:28:51;;;;;;;11.65;3.00;;;;;;;0.12;89.08;96724.53;5095232;28;20458;-76
2022/02/26 04:31:17;;;;;;;6.50;3.00;;;;;;;0.07;89.67;96723.44;5109938;28;20075;-74
2022/02/26 04:33:43;;;;;;;9.07;3.20;;;;;;;-0.05;90.11;96715.28;5103740;28;20047;-73
2022/02/26 04:36:09;;;;;;;9.98;3.45;;;;;;;0.05;89.95;96715.84;5093572;28;20054;-75
2022/02/26 04:38:35;;;;;;;8.07;3.00;;;;;;;0.11;90.37;96720.31;5089150;28;20044;-75
2022/02/26 04:41:03;;;;;;;7.85;3.38;;;;;;;0.09;90.44;96727.47;5088393;28;20044;-75
2022/02/26 04:43:30;;;;;;;9.27;3.63;;;;;;;0.05;91.39;96721.03;5098533;28;20536;-75
2022/02/26 04:45:55;;;;;;;8.82;3.42;;;;;;;-0.05;91.64;96723.84;5097741;28;20088;-75
2022/02/26 04:48:21;;;;;;;9.07;3.50;;;;;;;-0.07;91.86;96724.97;5097452;28;20143;-75
2022/02/26 04:50:47;;;;;;;8.50;3.45;;;;;;;-0.06;91.97;96729.19;5099589;28;20055;-75
2022/02/26 04:53:12;;;;;;;8.65;3.50;;;;;;;-0.16;92.10;96726.03;5092984;28;20043;-75
2022/02/26 04:55:38;;;;;;;9.77;3.10;;;;;;;-0.08;92.58;96731.16;5097262;28;20043;-75
2022/02/26 04:58:03;;;;;;;9.73;3.33;;;;;;;-0.02;92.54;96743.41;5087431;28;20500;-75
2022/02/26 05:00:29;;;;;;;16.20;4.40;;;;;;;-0.04;92.71;96737.59;5088963;28;20040;-75
2022/02/26 05:02:55;;;;;;;8.70;3.75;;;;;;;-0.14;93.12;96744.75;5089704;28;20051;-75
2022/02/26 05:05:20;;;;;;;9.70;3.85;;;;;;;-0.19;92.86;96735.75;5091847;28;20044;-75
2022/02/26 05:07:46;;;;;;;8.95;3.22;;;;;;;-0.24;92.94;96738.03;5107959;28;20130;-75
2022/02/26 05:10:13;;;;;;;8.75;3.60;;;;;;;-0.22;93.45;96743.81;5107711;28;20093;-76
2022/02/26 05:12:39;;;;;;;8.32;3.20;;;;;;;-0.21;93.63;96740.28;5107820;28;20059;-75
2022/02/26 05:15:05;;;;;;;8.23;3.60;;;;;;;-0.25;93.97;96741.59;5090727;28;20506;-75
2022/02/26 05:17:32;;;;;;;11.20;3.50;;;;;;;-0.27;94.31;96747.94;5088139;28;20448;-75
2022/02/26 05:19:58;;;;;;;9.48;3.90;;;;;;;-0.23;93.92;96754.34;5096009;28;20056;-74
2022/02/26 05:22:23;;;;;;;10.88;4.00;;;;;;;-0.22;94.25;96746.41;5106564;28;20536;-74
2022/02/26 05:24:49;;;;;;;8.88;3.58;;;;;;;-0.23;94.35;96750.00;5099649;28;20036;-75
2022/02/26 05:27:14;;;;;;;6.97;3.50;;;;;;;-0.16;94.47;96754.47;5107656;28;20043;-75
2022/02/26 05:29:40;;;;;;;9.35;3.63;;;;;;;-0.24;95.12;96748.38;5107718;28;20036;-75
2022/02/26 05:32:06;;;;;;;9.35;3.30;;;;;;;-0.22;95.98;96754.19;5101352;28;20047;-75
2022/02/26 05:34:31;;;;;;;9.43;3.40;;;;;;;-0.25;95.05;96756.31;5105821;28;20161;-75
2022/02/26 05:36:57;;;;;;;6.43;3.40;;;;;;;-0.25;95.44;96754.53;5108582;28;20040;-74
2022/02/26 05:39:23;;;;;;;13.40;3.67;;;;;;;-0.27;96.07;96760.88;5102146;28;20140;-74
2022/02/26 05:41:48;;;;;;;14.50;4.75;;;;;;;-0.25;95.46;96762.28;5092335;28;20049;-75
2022/02/26 05:44:14;;;;;;;9.52;3.63;;;;;;;-0.24;95.34;96774.25;5100012;28;20040;-74
2022/02/26 05:46:39;;;;;;;10.15;3.75;;;;;;;-0.22;95.51;96777.47;5098216;28;20062;-75
2022/02/26 05:49:05;;;;;;;8.68;3.90;;;;;;;-0.25;95.18;96779.59;5112992;28;20074;-74
2022/02/26 05:51:30;;;;;;;10.18;3.28;;;;;;;-0.20;95.14;96793.63;5098616;28;20036;-74
2022/02/26 05:53:56;;;;;;;8.60;3.50;;;;;;;-0.21;94.01;96779.09;5098950;28;20047;-75
2022/02/26 05:56:21;;;;;;;12.48;3.53;;;;;;;-0.11;94.07;96793.59;5105154;28;20044;-75
2022/02/26 05:58:47;;;;;;;13.52;3.67;;;;;;;-0.13;93.82;96780.00;5106294;28;20108;-75
2022/02/26 06:01:12;;;;;;;8.10;3.42;;;;;;;-0.05;93.64;96792.91;5102323;28;20048;-75
2022/02/26 06:03:38;;;;;;;10.30;3.92;;;;;;;-0.18;95.37;96794.25;5099767;28;20100;-75
2022/02/26 06:06:04;;;;;;;6.68;3.30;;;;;;;-0.07;93.89;96802.63;5105587;28;20047;-75
2022/02/26 06:08:29;;;;;;;10.60;3.85;;;;;;;-0.13;94.11;96795.53;5103079;28;20097;-75
2022/02/26 06:10:55;;;;;;;8.13;3.42;;;;;;;-0.08;94.19;96801.03;5096659;28;20676;-74
2022/02/26 06:13:20;;;;;;;7.63;4.18;;;;;;;-0.08;93.98;96801.81;5100873;28;20032;-75
2022/02/26 06:15:46;;;;;;;8.30;3.58;;;;;;;-0.03;93.84;96812.47;5102608;28;20681;-75
2022/02/26 06:18:11;;;;;;;7.28;3.40;;;;;;;-0.04;94.28;96804.88;5108967;27;20047;-76
2022/02/26 06:20:37;;;;;;;9.98;4.15;;;;;;;-0.12;95.33;96812.69;5095399;28;20047;-75
2022/02/26 06:23:03;;;;;;;10.60;3.90;;;;;;;-0.09;94.07;96822.69;5091588;28;20051;-75
2022/02/26 06:25:28;;;;;;;12.80;4.38;;;;;;;0.01;94.34;96823.28;5095072;28;20084;-75
2022/02/26 06:27:54;;;;;;;8.95;3.90;;;;;;;-0.03;93.98;96822.00;5089911;28;20105;-75
2022/02/26 06:30:21;;;;;;;8.13;3.92;;;;;;;-0.03;93.86;96817.66;5091822;28;20051;-74
2022/02/26 06:32:46;;;;;;;10.27;3.88;;;;;;;-0.15;94.00;96833.72;5094687;27;20451;-75
2022/02/26 06:35:12;;;;;;;9.35;3.75;;;;;;;-0.25;94.81;96823.56;5101606;28;20039;-75
2022/02/26 06:37:38;;;;;;;8.98;3.63;;;;;;;-0.13;94.08;96837.78;5093395;28;20483;-75
2022/02/26 06:40:06;;;;;;;12.00;3.83;;;;;;;-0.18;94.39;96835.66;5091545;28;20418;-75
2022/02/26 06:42:31;;;;;;;9.43;3.83;;;;;;;-0.11;93.95;96840.97;5100442;27;20111;-75
2022/02/26 06:44:57;;;;;;;9.82;3.78;;;;;;;-0.08;93.62;96845.03;5107816;28;20040;-75
2022/02/26 06:47:23;;;;;;;10.70;3.95;;;;;;;0.01;93.57;96838.81;5105678;28;20044;-75
2022/02/26 06:49:48;;;;;;;13.88;3.88;;;;;;;-0.10;93.54;96841.78;5101205;28;20039;-75
2022/02/26 06:52:14;;;;;;;11.80;3.80;;;;;;;-0.07;93.96;96844.84;5096422;28;20120;-71
2022/02/26 06:54:40;;;;;;;11.27;3.83;;;;;;;0.11;93.29;96844.59;5095775;27;20047;-72
2022/02/26 06:57:05;;;;;;;13.32;4.15;;;;;;;0.05;93.55;96847.84;5095929;28;20490;-73
2022/02/26 06:59:31;;;;;;;11.52;4.28;;;;;;;0.13;93.20;96847.81;5094417;28;20043;-76
2022/02/26 07:01:57;;;;;;;11.15;4.10;;;;;;;0.10;92.83;96861.09;5094935;27;20090;-72
2022/02/26 07:04:23;;;;;;;9.98;4.55;;;;;;;0.16;92.36;96860.44;5097793;28;20527;-72
2022/02/26 07:06:50;;;;;;;13.68;4.07;;;;;;;0.12;92.43;96856.56;5102824;27;20036;-73
2022/02/26 07:09:17;;;;;;;10.05;3.80;;;;;;;0.04;91.84;96859.19;5090663;28;20043;-72
2022/02/26 07:11:44;;;;;;;7.53;3.90;;;;;;;0.09;91.38;96856.91;5095109;28;20028;-72
2022/02/26 07:14:11;;;;;;;17.08;4.80;;;;;;;0.01;91.81;96869.06;5103585;28;20047;-72
2022/02/26 07:16:37;;;;;;;11.40;4.18;;;;;;;0.16;93.16;96873.38;5098035;28;20119;-73
2022/02/26 07:19:03;;;;;;;10.43;3.80;;;;;;;0.15;92.45;96881.31;5097462;28;20044;-74
2022/02/26 07:21:29;;;;;;;13.70;4.43;;;;;;;0.28;92.21;96891.13;5102544;28;20251;-75
2022/02/26 07:23:56;;;;;;;8.63;3.58;;;;;;;0.25;92.20;96886.28;5098974;28;20039;-73
2022/02/26 07:26:26;;;;;;;11.68;4.93;;;;;;;0.22;91.64;96891.81;5099646;28;20035;-74
2022/02/26 07:28:52;;;;;;;12.65;4.68;;;;;;;0.05;91.97;96891.84;5109858;28;20051;-76
2022/02/26 07:31:18;;;;;;;14.95;4.82;;;;;;;0.05;92.55;96897.03;5106991;28;20042;-73
2022/02/26 07:33:44;;;;;;;11.90;4.47;;;;;;;0.13;92.86;96899.59;5103738;28;20537;-75
2022/02/26 07:36:10;;;;;;;13.50;5.20;;;;;;;0.14;92.33;96906.41;5098823;28;20055;-74
2022/02/26 07:38:36;;;;;;;22.67;5.43;;;;;;;0.12;93.09;96902.34;5101946;28;20409;-74
2022/02/26 07:41:02;;;;;;;15.65;4.57;;;;;;;0.07;93.15;96905.47;5099678;28;20454;-75
2022/02/26 07:43:28;;;;;;;17.63;4.53;;;;;;;0.14;92.90;96901.22;5105331;28;20081;-76
2022/02/26 07:45:55;;;;;;;11.25;4.43;;;;;;;0.27;92.64;96905.03;5104365;27;20051;-75
2022/02/26 07:48:21;;;;;;;12.65;5.00;;;;;;;0.21;93.36;96905.72;5102004;28;20043;-75
2022/02/26 07:50:46;;;;;;;15.10;4.72;;;;;;;0.34;92.48;96916.31;5102290;28;20070;-75
2022/02/26 07:53:13;;;;;;;15.73;5.22;;;;;;;0.27;92.62;96911.00;5095845;28;20040;-75
2022/02/26 07:55:38;;;;;;;11.73;5.10;;;;;;;0.43;92.85;96917.91;5093758;28;20089;-75
2022/02/26 07:58:06;;;;;;;16.20;4.88;;;;;;;0.45;92.63;96913.34;5104283;28;20036;-74
2022/02/26 08:00:32;;;;;;;13.80;4.65;;;;;;;0.32;93.17;96913.09;5093581;28;20409;-74
2022/02/26 08:02:57;;;;;;;16.02;4.75;;;;;;;0.47;93.64;96923.53;5097726;28;20048;-74
2022/02/26 08:05:27;;;;;;;15.82;4.80;;;;;;;0.31;93.81;96921.84;5105424;28;20096;-75
2022/02/26 08:07:53;;;;;;;21.17;5.18;;;;;;;0.40;93.48;96920.81;5099837;28;20062;-74
2022/02/26 08:10:21;;;;;;;14.73;4.82;;;;;;;0.42;92.69;96918.88;5089882;28;20513;-73
2022/02/26 08:12:48;;;;;;;10.90;4.65;;;;;;;0.46;92.93;96920.16;5101268;28;20043;-74
2022/02/26 08:15:14;;;;;;;11.98;4.53;;;;;;;0.55;93.99;96914.91;5105528;28;20047;-74
2022/02/26 08:17:43;;;;;;;12.55;4.88;;;;;;;0.45;93.19;96921.13;5093305;28;20036;-74
2022/02/26 08:20:09;;;;;;;14.43;4.60;;;;;;;0.49;92.38;96919.00;5099862;28;20058;-73
2022/02/26 08:22:35;;;;;;;12.77;4.90;;;;;;;0.39;92.64;96918.41;5101480;28;20716;-75
2022/02/26 08:25:00;;;;;;;13.70;4.78;;;;;;;0.47;92.05;96926.94;5089317;28;20051;-73
2022/02/26 08:27:26;;;;;;;14.55;4.18;;;;;;;0.52;92.58;96923.84;5091144;28;20093;-75
2022/02/26 08:29:51;;;;;;;12.57;4.82;;;;;;;0.55;91.73;96927.84;5091216;28;20043;-78
2022/02/26 08:32:17;;;;;;;20.42;5.18;;;;;;;0.77;91.73;96927.09;5094287;28;20044;-77
2022/02/26 08:34:44;;;;;;;14.48;4.63;;;;;;;0.72;91.64;96932.00;5103547;28;20531;-73
2022/02/26 08:37:09;;;;;;;16.70;5.07;;;;;;;0.85;91.08;96924.44;5103751;28;20039;-73
2022/02/26 08:39:35;;;;;;;12.98;4.55;;;;;;;0.95;90.07;96928.56;5109403;28;20040;-73
2022/02/26 08:42:01;;;;;;;13.90;4.50;;;;;;;0.97;88.21;96937.00;5092903;28;20048;-73
2022/02/26 08:44:27;;;;;;;15.23;4.72;;;;;;;0.84;88.92;96940.97;5091980;28;20036;-74
2022/02/26 08:46:52;;;;;;;20.50;4.93;;;;;;;0.97;87.34;96939.59;5088947;28;20040;-74
2022/02/26 08:49:18;;;;;;;17.10;5.32;;;;;;;0.95;87.53;96938.94;5091369;28;20032;-73
2022/02/26 08:51:44;;;;;;;16.08;5.20;;;;;;;0.84;89.17;96943.56;5105840;28;20729;-73
2022/02/26 08:54:09;;;;;;;13.93;4.93;;;;;;;0.93;88.67;96936.53;5100755;28;20040;-73
2022/02/26 08:56:35;;;;;;;16.35;5.32;;;;;;;0.96;88.82;96937.97;5098130;28;20038;-73
2022/02/26 08:59:01;;;;;;;16.60;6.10;;;;;;;1.02;87.56;96934.69;5104692;28;20044;-74
2022/02/26 09:01:26;;;;;;;17.77;6.03;;;;;;;1.06;87.51;96935.94;5100583;28;20078;-74
2022/02/26 09:03:52;;;;;;;14.43;5.43;;;;;;;1.00;87.51;96947.03;5098118;28;20043;-73
2022/02/26 09:06:18;;;;;;;17.75;4.88;;;;;;;1.10;83.89;96942.41;5091961;28;20481;-73
2022/02/26 09:08:43;;;;;;;18.63;4.35;;;;;;;0.94;81.71;96937.34;5106217;28;20084;-73
2022/02/26 09:11:09;;;;;;;13.02;4.55;;;;;;;0.97;81.94;96931.81;5102477;28;20107;-74
2022/02/26 09:13:37;;;;;;;21.73;5.47;;;;;;;0.76;84.81;96938.44;5112443;28;20105;-74
2022/02/26 09:16:03;;;;;;;13.73;5.30;;;;;;;1.00;85.39;96941.84;5102446;28;20040;-74
2022/02/26 09:18:29;;;;;;;16.58;5.53;;;;;;;1.19;84.82;96946.56;5106349;27;20476;-74
2022/02/26 09:20:55;;;;;;;21.90;6.13;;;;;;;1.38;83.13;96944.47;5098850;28;20628;-74
2022/02/26 09:23:20;;;;;;;15.23;5.70;;;;;;;1.35;82.18;96952.56;5106168;28;20048;-73
2022/02/26 09:25:46;;;;;;;14.65;5.13;;;;;;;1.34;83.06;96945.81;5100346;28;20130;-73
2022/02/26 09:28:12;;;;;;;13.82;5.00;;;;;;;1.50;81.90;96943.03;5097963;28;20046;-73
2022/02/26 09:30:37;;;;;;;20.77;5.45;;;;;;;1.46;82.19;96941.78;5104546;28;20036;-72
2022/02/26 09:33:04;;;;;;;16.75;4.97;;;;;;;1.23;81.92;96946.22;5097498;28;20039;-74
2022/02/26 09:35:30;;;;;;;16.17;5.03;;;;;;;1.28;82.60;96938.69;5098377;28;20136;-76
2022/02/26 09:37:56;;;;;;;19.08;5.00;;;;;;;1.29;81.68;96945.50;5099379;28;20068;-74
2022/02/26 09:40:21;;;;;;;18.23;3.75;;;;;;;1.31;80.18;96948.75;5114191;28;20119;-72
2022/02/26 09:53:49;;;;;;;16.20;4.47;;;;;;;1.66;78.83;96946.47;5662528;22;20455;-71
2022/02/26 09:56:15;;;;;;;17.67;4.13;;;;;;;1.75;77.03;96944.59;4983555;28;20503;-71
2022/02/26 09:58:41;;;;;;;12.20;3.45;;;;;;;1.84;75.61;96939.16;4993376;28;20052;-71
2022/02/26 10:01:07;;;;;;;12.43;3.88;;;;;;;1.90;72.92;96948.81;4993886;28;20435;-70
2022/02/26 10:03:37;;;;;;;13.30;3.45;;;;;;;2.06;72.33;96947.03;4991745;28;20038;-71
2022/02/26 10:06:07;;;;;;;18.20;3.35;;;;;;;1.93;68.88;96949.47;4992819;28;20046;-71
2022/02/26 10:08:42;;;;;;;9.32;3.30;;;;;;;2.16;68.64;96947.56;4990511;28;20046;-70
2022/02/26 10:11:20;;;;;;;15.20;3.65;;;;;;;2.54;72.75;96939.63;4990530;28;20777;-77
2022/02/26 10:13:46;;;;;;;12.98;3.33;;;;;;;3.43;68.75;96948.06;4991510;28;20050;-73
2022/02/26 10:16:12;;;;;;;9.05;2.83;;;;;;;3.71;64.89;96944.69;4993049;28;20042;-72
2022/02/26 10:18:37;;;;;;;9.80;2.47;;;;;;;4.42;61.81;96947.06;4999457;28;20514;-72
2022/02/26 10:21:04;;;;;;;12.65;3.30;;;;;;;4.94;58.83;96944.81;4986616;28;20097;-72
2022/02/26 10:23:30;;;;;;;14.43;2.90;;;;;;;6.35;56.47;96950.78;4992270;28;20065;-75
2022/02/26 10:26:10;;;;;;;8.05;2.58;;;;;;;7.90;51.30;96935.66;4988777;28;20527;-71
2022/02/26 10:28:40;;;;;;;9.77;2.83;;;;;;;6.62;54.93;96945.41;4993116;28;20042;-71
2022/02/26 10:31:07;;;;;;;10.00;3.10;;;;;;;5.68;54.81;96943.03;4990392;28;20136;-71
2022/02/26 10:33:32;;;;;;;11.25;3.63;;;;;;;4.38;58.93;96947.63;4990194;28;20654;-71
2022/02/26 10:36:04;;;;;;;14.95;3.10;;;;;;;3.67;62.91;96933.03;4992398;28;20049;-72
2022/02/26 10:38:32;;;;;;;10.45;3.05;;;;;;;4.60;61.08;96928.28;4993813;28;20054;-72
2022/02/26 10:41:13;;;;;;;9.13;2.85;;;;;;;6.65;52.93;96924.09;4991106;28;20082;-72
2022/02/26 10:43:49;;;;;;;12.02;2.83;;;;;;;8.56;49.98;96928.09;4987274;28;20046;-72
2022/02/26 10:46:22;;;;;;;18.23;3.67;;;;;;;8.74;45.21;96935.13;4993225;28;20121;-72
2022/02/26 10:48:53;;;;;;;8.32;2.83;;;;;;;7.41;48.14;96932.88;4992737;28;20388;-72
2022/02/26 10:51:22;;;;;;;13.27;2.97;;;;;;;6.78;50.88;96932.88;4989848;28;20053;-72
2022/02/26 10:53:48;;;;;;;9.05;2.70;;;;;;;5.88;55.42;96929.16;4991693;28;20426;-71
2022/02/26 10:56:15;;;;;;;9.30;3.17;;;;;;;7.48;51.63;96921.53;4991482;28;20566;-73
2022/02/26 10:58:42;;;;;;;8.63;2.42;;;;;;;6.96;49.75;96919.88;4991523;28;20046;-72
2022/02/26 11:01:13;;;;;;;9.32;2.53;;;;;;;5.99;52.45;96925.94;4989182;28;20519;-71
2022/02/26 11:03:39;;;;;;;12.90;2.88;;;;;;;6.71;50.01;96912.78;4977769;28;20039;-71
2022/02/26 11:06:09;;;;;;;7.50;2.28;;;;;;;4.91;53.06;96924.31;4984278;28;20047;-71
2022/02/26 11:08:35;;;;;;;10.93;2.35;;;;;;;4.31;53.33;96924.97;4990548;28;20050;-73
2022/02/26 11:11:05;;;;;;;8.60;3.03;;;;;;;3.82;57.95;96925.91;4990535;28;20046;-72
2022/02/26 11:13:31;;;;;;;8.70;2.45;;;;;;;3.44;55.18;96923.66;4989957;28;20415;-71
2022/02/26 11:15:58;;;;;;;10.52;2.20;;;;;;;2.85;57.18;96935.94;4990650;28;20049;-72
2022/02/26 11:18:30;;;;;;;9.63;2.10;;;;;;;3.13;55.41;96932.59;4989273;28;20519;-70
2022/02/26 11:20:56;;;;;;;11.95;2.78;;;;;;;3.14;57.74;96928.22;4981623;28;20035;-71
2022/02/26 11:23:24;;;;;;;9.35;2.22;;;;;;;3.18;58.92;96930.25;4989554;28;20050;-76
2022/02/26 11:25:52;;;;;;;6.13;1.77;;;;;;;3.31;56.88;96920.97;4989120;28;20034;-74
2022/02/26 11:28:18;;;;;;;10.25;1.90;;;;;;;3.31;57.42;96915.75;4990064;28;20376;-73
2022/02/26 11:30:55;;;;;;;8.20;1.83;;;;;;;3.26;58.02;96921.50;4975110;28;20038;-72
2022/02/26 11:33:21;;;;;;;7.95;2.22;;;;;;;3.31;56.76;96918.34;4971075;28;20463;-73
2022/02/26 11:35:55;;;;;;;7.32;1.88;;;;;;;3.23;56.03;96912.31;4973787;28;20043;-74
2022/02/26 11:38:22;;;;;;;6.10;1.87;;;;;;;3.20;56.66;96912.66;4972528;28;20042;-72
2022/02/26 11:41:22;;;;;;;12.32;2.75;;;;;;;3.18;57.20;96909.44;4977433;28;20054;-70
2022/02/26 11:43:56;;;;;;;8.75;1.88;;;;;;;3.02;56.34;96915.72;4985700;28;20038;-72